sensor_id;sensor_type;location;lat;lon;timestamp;P1;durP1;ratioP1;P2;durP2;ratioP2
44766;SDS011;30487;48.716;9.272;2023-04-19T00:01:21;10.98;;;6.35;;
44766;SDS011;30487;48.716;9.272;2023-04-19T00:03:48;10.02;;;6.40;;
44766;SDS011;30487;48.716;9.272;2023-04-19T00:06:14;12.52;;;6.30;;
44766;SDS011;30487;48.716;9.272;2023-04-19T00:08:40;10.20;;;5.82;;
44766;SDS011;30487;48.716;9.272;2023-04-19T00:11:06;10.43;;;6.40;;
44766;SDS011;30487;48.716;9.272;2023-04-19T00:13:32;12.07;;;6.57;;
44766;SDS011;30487;48.716;9.272;2023-04-19T00:15:58;11.45;;;6.38;;
44766;SDS011;30487;48.716;9.272;2023-04-19T00:18:24;12.27;;;6.63;;
44766;SDS011;30487;48.716;9.272;2023-04-19T00:20:49;10.95;;;6.40;;
44766;SDS011;30487;48.716;9.272;2023-04-19T00:23:15;11.00;;;6.15;;
44766;SDS011;30487;48.716;9.272;2023-04-19T00:25:41;12.43;;;6.35;;
44766;SDS011;30487;48.716;9.272;2023-04-19T00:28:06;11.90;;;6.78;;
44766;SDS011;30487;48.716;9.272;2023-04-19T00:30:32;10.07;;;6.13;;
44766;SDS011;30487;48.716;9.272;2023-04-19T00:32:57;12.38;;;6.28;;
44766;SDS011;30487;48.716;9.272;2023-04-19T00:35:23;10.13;;;6.40;;
44766;SDS011;30487;48.716;9.272;2023-04-19T00:37:49;11.35;;;5.85;;
44766;SDS011;30487;48.716;9.272;2023-04-19T00:40:14;10.38;;;6.25;;
44766;SDS011;30487;48.716;9.272;2023-04-19T00:42:40;10.10;;;6.18;;
44766;SDS011;30487;48.716;9.272;2023-04-19T00:45:06;10.65;;;6.28;;
44766;SDS011;30487;48.716;9.272;2023-04-19T00:47:33;14.13;;;6.00;;
44766;SDS011;30487;48.716;9.272;2023-04-19T00:49:59;12.82;;;6.85;;
44766;SDS011;30487;48.716;9.272;2023-04-19T00:52:26;11.27;;;6.25;;
44766;SDS011;30487;48.716;9.272;2023-04-19T00:54:52;11.63;;;6.90;;
44766;SDS011;30487;48.716;9.272;2023-04-19T00:57:18;11.02;;;6.32;;
44766;SDS011;30487;48.716;9.272;2023-04-19T00:59:44;13.32;;;6.13;;
44766;SDS011;30487;48.716;9.272;2023-04-19T01:02:10;10.73;;;6.50;;
44766;SDS011;30487;48.716;9.272;2023-04-19T01:04:35;11.68;;;6.75;;
44766;SDS011;30487;48.716;9.272;2023-04-19T01:07:01;12.27;;;6.65;;
44766;SDS011;30487;48.716;9.272;2023-04-19T01:09:27;10.77;;;6.40;;
44766;SDS011;30487;48.716;9.272;2023-04-19T01:11:53;10.88;;;6.50;;
44766;SDS011;30487;48.716;9.272;2023-04-19T01:14:18;12.32;;;6.82;;
44766;SDS011;30487;48.716;9.272;2023-04-19T01:16:44;11.70;;;6.63;;
44766;SDS011;30487;48.716;9.272;2023-04-19T01:19:10;10.70;;;6.28;;
44766;SDS011;30487;48.716;9.272;2023-04-19T01:21:36;10.70;;;6.88;;
44766;SDS011;30487;48.716;9.272;2023-04-19T01:24:06;12.23;;;6.82;;
44766;SDS011;30487;48.716;9.272;2023-04-19T01:26:32;12.90;;;7.15;;
44766;SDS011;30487;48.716;9.272;2023-04-19T01:28:58;12.32;;;7.07;;
44766;SDS011;30487;48.716;9.272;2023-04-19T01:31:23;11.27;;;6.65;;
44766;SDS011;30487;48.716;9.272;2023-04-19T01:33:49;13.13;;;6.65;;
44766;SDS011;30487;48.716;9.272;2023-04-19T01:36:14;11.27;;;6.55;;
44766;SDS011;30487;48.716;9.272;2023-04-19T01:38:40;12.05;;;6.80;;
44766;SDS011;30487;48.716;9.272;2023-04-19T01:41:05;13.82;;;7.07;;
44766;SDS011;30487;48.716;9.272;2023-04-19T01:43:31;13.25;;;7.25;;
44766;SDS011;30487;48.716;9.272;2023-04-19T01:45:57;13.40;;;6.90;;
44766;SDS011;30487;48.716;9.272;2023-04-19T01:48:23;14.07;;;6.47;;
44766;SDS011;30487;48.716;9.272;2023-04-19T01:50:48;13.25;;;7.18;;
44766;SDS011;30487;48.716;9.272;2023-04-19T01:53:14;12.18;;;7.03;;
44766;SDS011;30487;48.716;9.272;2023-04-19T01:55:39;12.15;;;7.30;;
44766;SDS011;30487;48.716;9.272;2023-04-19T01:58:05;13.15;;;7.00;;
44766;SDS011;30487;48.716;9.272;2023-04-19T02:00:31;13.32;;;6.90;;
44766;SDS011;30487;48.716;9.272;2023-04-19T02:02:56;13.43;;;7.32;;
44766;SDS011;30487;48.716;9.272;2023-04-19T02:05:22;14.82;;;6.97;;
44766;SDS011;30487;48.716;9.272;2023-04-19T02:07:47;12.82;;;6.97;;
44766;SDS011;30487;48.716;9.272;2023-04-19T02:10:13;13.18;;;7.35;;
44766;SDS011;30487;48.716;9.272;2023-04-19T02:12:39;12.57;;;6.75;;
44766;SDS011;30487;48.716;9.272;2023-04-19T02:15:05;13.60;;;7.38;;
44766;SDS011;30487;48.716;9.272;2023-04-19T02:17:31;11.80;;;6.43;;
44766;SDS011;30487;48.716;9.272;2023-04-19T02:19:57;12.60;;;7.05;;
44766;SDS011;30487;48.716;9.272;2023-04-19T02:22:22;13.05;;;7.18;;
44766;SDS011;30487;48.716;9.272;2023-04-19T02:24:51;12.85;;;7.45;;
44766;SDS011;30487;48.716;9.272;2023-04-19T02:27:17;12.90;;;7.55;;
44766;SDS011;30487;48.716;9.272;2023-04-19T02:29:42;11.85;;;7.30;;
44766;SDS011;30487;48.716;9.272;2023-04-19T02:32:10;12.82;;;8.05;;
44766;SDS011;30487;48.716;9.272;2023-04-19T02:34:36;12.40;;;7.40;;
44766;SDS011;30487;48.716;9.272;2023-04-19T02:37:02;12.68;;;7.53;;
44766;SDS011;30487;48.716;9.272;2023-04-19T02:39:27;12.20;;;6.75;;
44766;SDS011;30487;48.716;9.272;2023-04-19T02:41:54;13.43;;;7.63;;
44766;SDS011;30487;48.716;9.272;2023-04-19T02:44:20;12.57;;;7.25;;
44766;SDS011;30487;48.716;9.272;2023-04-19T02:46:48;12.45;;;7.55;;
44766;SDS011;30487;48.716;9.272;2023-04-19T02:49:15;14.88;;;7.60;;
44766;SDS011;30487;48.716;9.272;2023-04-19T02:51:41;13.23;;;6.97;;
44766;SDS011;30487;48.716;9.272;2023-04-19T02:54:07;15.45;;;7.75;;
44766;SDS011;30487;48.716;9.272;2023-04-19T02:56:32;13.52;;;7.63;;
44766;SDS011;30487;48.716;9.272;2023-04-19T02:59:01;16.20;;;8.05;;
44766;SDS011;30487;48.716;9.272;2023-04-19T03:01:27;14.30;;;8.30;;
44766;SDS011;30487;48.716;9.272;2023-04-19T03:03:53;13.43;;;7.60;;
44766;SDS011;30487;48.716;9.272;2023-04-19T03:06:18;14.13;;;7.68;;
44766;SDS011;30487;48.716;9.272;2023-04-19T03:08:44;14.50;;;7.65;;
44766;SDS011;30487;48.716;9.272;2023-04-19T03:11:10;12.68;;;7.82;;
44766;SDS011;30487;48.716;9.272;2023-04-19T03:13:36;12.80;;;7.35;;
44766;SDS011;30487;48.716;9.272;2023-04-19T03:16:03;15.35;;;8.10;;
44766;SDS011;30487;48.716;9.272;2023-04-19T03:18:29;16.35;;;7.82;;
44766;SDS011;30487;48.716;9.272;2023-04-19T03:20:55;15.15;;;8.35;;
44766;SDS011;30487;48.716;9.272;2023-04-19T03:23:21;12.32;;;7.40;;
44766;SDS011;30487;48.716;9.272;2023-04-19T03:25:46;11.82;;;7.60;;
44766;SDS011;30487;48.716;9.272;2023-04-19T03:28:12;14.18;;;7.78;;
44766;SDS011;30487;48.716;9.272;2023-04-19T03:30:37;12.98;;;7.45;;
44766;SDS011;30487;48.716;9.272;2023-04-19T03:33:03;14.30;;;7.70;;
44766;SDS011;30487;48.716;9.272;2023-04-19T03:35:28;14.52;;;8.43;;
44766;SDS011;30487;48.716;9.272;2023-04-19T03:37:56;13.05;;;7.90;;
44766;SDS011;30487;48.716;9.272;2023-04-19T03:40:24;14.45;;;7.65;;
44766;SDS011;30487;48.716;9.272;2023-04-19T03:42:50;13.38;;;8.40;;
44766;SDS011;30487;48.716;9.272;2023-04-19T03:45:15;13.80;;;7.55;;
44766;SDS011;30487;48.716;9.272;2023-04-19T03:47:41;14.10;;;8.13;;
44766;SDS011;30487;48.716;9.272;2023-04-19T03:50:06;16.27;;;8.20;;
44766;SDS011;30487;48.716;9.272;2023-04-19T03:52:32;14.80;;;8.57;;
44766;SDS011;30487;48.716;9.272;2023-04-19T03:54:58;12.98;;;8.30;;
44766;SDS011;30487;48.716;9.272;2023-04-19T03:57:23;13.35;;;7.95;;
44766;SDS011;30487;48.716;9.272;2023-04-19T03:59:50;17.52;;;9.15;;
44766;SDS011;30487;48.716;9.272;2023-04-19T04:02:15;14.90;;;8.35;;
44766;SDS011;30487;48.716;9.272;2023-04-19T04:04:41;13.40;;;8.35;;
44766;SDS011;30487;48.716;9.272;2023-04-19T04:07:06;15.40;;;8.52;;
44766;SDS011;30487;48.716;9.272;2023-04-19T04:09:32;16.75;;;8.65;;
44766;SDS011;30487;48.716;9.272;2023-04-19T04:11:57;17.27;;;8.43;;
44766;SDS011;30487;48.716;9.272;2023-04-19T04:14:23;13.88;;;8.48;;
44766;SDS011;30487;48.716;9.272;2023-04-19T04:16:48;17.38;;;9.27;;
44766;SDS011;30487;48.716;9.272;2023-04-19T04:19:14;15.10;;;8.20;;
44766;SDS011;30487;48.716;9.272;2023-04-19T04:21:40;14.60;;;8.60;;
44766;SDS011;30487;48.716;9.272;2023-04-19T04:24:05;14.75;;;8.60;;
44766;SDS011;30487;48.716;9.272;2023-04-19T04:26:32;17.15;;;9.35;;
44766;SDS011;30487;48.716;9.272;2023-04-19T04:28:58;15.07;;;8.57;;
44766;SDS011;30487;48.716;9.272;2023-04-19T04:31:25;15.88;;;9.20;;
44766;SDS011;30487;48.716;9.272;2023-04-19T04:33:51;18.33;;;8.98;;
44766;SDS011;30487;48.716;9.272;2023-04-19T04:36:19;14.52;;;8.23;;
44766;SDS011;30487;48.716;9.272;2023-04-19T04:38:45;17.42;;;9.27;;
44766;SDS011;30487;48.716;9.272;2023-04-19T04:41:11;15.93;;;9.13;;
44766;SDS011;30487;48.716;9.272;2023-04-19T04:43:37;16.05;;;9.57;;
44766;SDS011;30487;48.716;9.272;2023-04-19T04:46:03;15.85;;;8.32;;
44766;SDS011;30487;48.716;9.272;2023-04-19T04:48:29;13.60;;;8.38;;
44766;SDS011;30487;48.716;9.272;2023-04-19T04:50:55;16.00;;;8.88;;
44766;SDS011;30487;48.716;9.272;2023-04-19T04:53:21;15.43;;;9.15;;
44766;SDS011;30487;48.716;9.272;2023-04-19T04:55:47;14.70;;;9.13;;
44766;SDS011;30487;48.716;9.272;2023-04-19T04:58:13;16.08;;;8.50;;
44766;SDS011;30487;48.716;9.272;2023-04-19T05:00:38;17.38;;;8.77;;
44766;SDS011;30487;48.716;9.272;2023-04-19T05:03:04;14.63;;;8.30;;
44766;SDS011;30487;48.716;9.272;2023-04-19T05:05:30;15.10;;;9.10;;
44766;SDS011;30487;48.716;9.272;2023-04-19T05:07:55;14.95;;;8.50;;
44766;SDS011;30487;48.716;9.272;2023-04-19T05:10:21;16.50;;;8.65;;
44766;SDS011;30487;48.716;9.272;2023-04-19T05:12:47;13.32;;;8.50;;
44766;SDS011;30487;48.716;9.272;2023-04-19T05:15:12;16.90;;;9.30;;
44766;SDS011;30487;48.716;9.272;2023-04-19T05:17:41;16.40;;;9.68;;
44766;SDS011;30487;48.716;9.272;2023-04-19T05:20:07;15.45;;;8.60;;
44766;SDS011;30487;48.716;9.272;2023-04-19T05:22:33;14.35;;;8.18;;
44766;SDS011;30487;48.716;9.272;2023-04-19T05:24:58;17.05;;;9.00;;
44766;SDS011;30487;48.716;9.272;2023-04-19T05:27:24;17.40;;;9.45;;
44766;SDS011;30487;48.716;9.272;2023-04-19T05:29:50;16.85;;;9.05;;
44766;SDS011;30487;48.716;9.272;2023-04-19T05:32:15;16.55;;;9.32;;
44766;SDS011;30487;48.716;9.272;2023-04-19T05:34:41;14.88;;;8.75;;
44766;SDS011;30487;48.716;9.272;2023-04-19T05:37:07;21.13;;;10.95;;
44766;SDS011;30487;48.716;9.272;2023-04-19T05:39:33;18.08;;;9.50;;
44766;SDS011;30487;48.716;9.272;2023-04-19T05:41:58;13.50;;;8.27;;
44766;SDS011;30487;48.716;9.272;2023-04-19T05:44:24;15.10;;;8.85;;
44766;SDS011;30487;48.716;9.272;2023-04-19T05:46:50;14.80;;;8.65;;
44766;SDS011;30487;48.716;9.272;2023-04-19T05:49:15;17.88;;;8.90;;
44766;SDS011;30487;48.716;9.272;2023-04-19T05:51:41;18.33;;;9.18;;
44766;SDS011;30487;48.716;9.272;2023-04-19T05:54:06;16.83;;;8.98;;
44766;SDS011;30487;48.716;9.272;2023-04-19T05:56:36;17.65;;;9.15;;
44766;SDS011;30487;48.716;9.272;2023-04-19T05:59:02;15.32;;;8.43;;
44766;SDS011;30487;48.716;9.272;2023-04-19T06:01:27;16.23;;;9.20;;
44766;SDS011;30487;48.716;9.272;2023-04-19T06:03:53;16.83;;;9.20;;
44766;SDS011;30487;48.716;9.272;2023-04-19T06:06:20;15.38;;;9.13;;
44766;SDS011;30487;48.716;9.272;2023-04-19T06:08:46;16.02;;;9.02;;
44766;SDS011;30487;48.716;9.272;2023-04-19T06:11:12;15.98;;;8.85;;
44766;SDS011;30487;48.716;9.272;2023-04-19T06:13:37;16.65;;;9.10;;
44766;SDS011;30487;48.716;9.272;2023-04-19T06:16:03;17.65;;;8.98;;
44766;SDS011;30487;48.716;9.272;2023-04-19T06:18:29;16.05;;;9.15;;
44766;SDS011;30487;48.716;9.272;2023-04-19T06:20:55;16.58;;;9.18;;
44766;SDS011;30487;48.716;9.272;2023-04-19T06:23:20;17.00;;;9.27;;
44766;SDS011;30487;48.716;9.272;2023-04-19T06:25:46;15.60;;;9.23;;
44766;SDS011;30487;48.716;9.272;2023-04-19T06:28:12;20.13;;;9.98;;
44766;SDS011;30487;48.716;9.272;2023-04-19T06:30:38;18.20;;;10.25;;
44766;SDS011;30487;48.716;9.272;2023-04-19T06:33:03;15.32;;;9.50;;
44766;SDS011;30487;48.716;9.272;2023-04-19T06:35:29;18.50;;;10.30;;
44766;SDS011;30487;48.716;9.272;2023-04-19T06:37:56;16.35;;;9.45;;
44766;SDS011;30487;48.716;9.272;2023-04-19T06:40:22;16.02;;;9.43;;
44766;SDS011;30487;48.716;9.272;2023-04-19T06:42:48;17.92;;;9.57;;
44766;SDS011;30487;48.716;9.272;2023-04-19T06:45:13;18.38;;;9.55;;
44766;SDS011;30487;48.716;9.272;2023-04-19T06:47:40;15.82;;;9.05;;
44766;SDS011;30487;48.716;9.272;2023-04-19T06:50:06;16.00;;;9.27;;
44766;SDS011;30487;48.716;9.272;2023-04-19T06:52:32;17.40;;;10.02;;
44766;SDS011;30487;48.716;9.272;2023-04-19T06:54:57;18.70;;;10.73;;
44766;SDS011;30487;48.716;9.272;2023-04-19T06:57:23;16.67;;;9.15;;
44766;SDS011;30487;48.716;9.272;2023-04-19T06:59:49;16.73;;;9.50;;
44766;SDS011;30487;48.716;9.272;2023-04-19T07:02:14;20.52;;;10.02;;
44766;SDS011;30487;48.716;9.272;2023-04-19T07:04:40;17.23;;;9.80;;
44766;SDS011;30487;48.716;9.272;2023-04-19T07:07:05;18.63;;;9.57;;
44766;SDS011;30487;48.716;9.272;2023-04-19T07:09:31;20.23;;;9.60;;
44766;SDS011;30487;48.716;9.272;2023-04-19T07:11:57;15.60;;;9.30;;
44766;SDS011;30487;48.716;9.272;2023-04-19T07:14:22;18.23;;;9.27;;
44766;SDS011;30487;48.716;9.272;2023-04-19T07:16:48;14.85;;;8.25;;
44766;SDS011;30487;48.716;9.272;2023-04-19T07:19:13;14.13;;;8.15;;
44766;SDS011;30487;48.716;9.272;2023-04-19T07:21:39;16.52;;;9.15;;
44766;SDS011;30487;48.716;9.272;2023-04-19T07:24:05;17.48;;;9.05;;
44766;SDS011;30487;48.716;9.272;2023-04-19T07:26:31;14.15;;;9.00;;
44766;SDS011;30487;48.716;9.272;2023-04-19T07:28:58;16.75;;;8.40;;
44766;SDS011;30487;48.716;9.272;2023-04-19T07:31:25;16.42;;;8.98;;
44766;SDS011;30487;48.716;9.272;2023-04-19T07:33:51;17.80;;;9.02;;
44766;SDS011;30487;48.716;9.272;2023-04-19T07:36:17;14.45;;;7.97;;
44766;SDS011;30487;48.716;9.272;2023-04-19T07:38:43;15.25;;;8.70;;
44766;SDS011;30487;48.716;9.272;2023-04-19T07:41:08;14.45;;;8.27;;
44766;SDS011;30487;48.716;9.272;2023-04-19T07:43:34;15.98;;;8.07;;
44766;SDS011;30487;48.716;9.272;2023-04-19T07:46:00;16.00;;;8.65;;
44766;SDS011;30487;48.716;9.272;2023-04-19T07:48:26;16.67;;;8.55;;
44766;SDS011;30487;48.716;9.272;2023-04-19T07:50:52;13.07;;;7.82;;
44766;SDS011;30487;48.716;9.272;2023-04-19T07:53:17;13.23;;;7.68;;
44766;SDS011;30487;48.716;9.272;2023-04-19T07:55:43;14.73;;;7.82;;
44766;SDS011;30487;48.716;9.272;2023-04-19T07:58:09;12.20;;;7.65;;
44766;SDS011;30487;48.716;9.272;2023-04-19T08:00:35;13.70;;;7.60;;
44766;SDS011;30487;48.716;9.272;2023-04-19T08:03:02;13.80;;;8.20;;
44766;SDS011;30487;48.716;9.272;2023-04-19T08:05:28;15.85;;;8.30;;
44766;SDS011;30487;48.716;9.272;2023-04-19T08:07:54;14.95;;;8.38;;
44766;SDS011;30487;48.716;9.272;2023-04-19T08:10:19;15.30;;;8.60;;
44766;SDS011;30487;48.716;9.272;2023-04-19T08:12:45;14.70;;;8.15;;
44766;SDS011;30487;48.716;9.272;2023-04-19T08:15:11;14.77;;;7.90;;
44766;SDS011;30487;48.716;9.272;2023-04-19T08:17:37;12.93;;;7.57;;
44766;SDS011;30487;48.716;9.272;2023-04-19T08:20:05;14.55;;;7.80;;
44766;SDS011;30487;48.716;9.272;2023-04-19T08:22:31;17.98;;;8.38;;
44766;SDS011;30487;48.716;9.272;2023-04-19T08:24:56;13.02;;;7.10;;
44766;SDS011;30487;48.716;9.272;2023-04-19T08:27:22;13.48;;;7.38;;
44766;SDS011;30487;48.716;9.272;2023-04-19T08:29:50;19.55;;;7.57;;
44766;SDS011;30487;48.716;9.272;2023-04-19T08:32:16;12.82;;;7.47;;
44766;SDS011;30487;48.716;9.272;2023-04-19T08:34:42;13.00;;;7.75;;
44766;SDS011;30487;48.716;9.272;2023-04-19T08:37:07;12.88;;;7.25;;
44766;SDS011;30487;48.716;9.272;2023-04-19T08:39:33;13.40;;;7.35;;
44766;SDS011;30487;48.716;9.272;2023-04-19T08:42:03;12.85;;;7.32;;
44766;SDS011;30487;48.716;9.272;2023-04-19T08:44:31;11.73;;;6.70;;
44766;SDS011;30487;48.716;9.272;2023-04-19T08:46:57;10.57;;;6.22;;
44766;SDS011;30487;48.716;9.272;2023-04-19T08:49:23;12.75;;;6.47;;
44766;SDS011;30487;48.716;9.272;2023-04-19T08:51:49;11.07;;;6.18;;
44766;SDS011;30487;48.716;9.272;2023-04-19T08:54:16;11.00;;;5.90;;
44766;SDS011;30487;48.716;9.272;2023-04-19T08:56:43;10.35;;;5.78;;
44766;SDS011;30487;48.716;9.272;2023-04-19T08:59:09;9.35;;;5.22;;
44766;SDS011;30487;48.716;9.272;2023-04-19T09:01:35;11.38;;;5.80;;
44766;SDS011;30487;48.716;9.272;2023-04-19T09:04:04;9.68;;;5.40;;
44766;SDS011;30487;48.716;9.272;2023-04-19T09:06:38;9.05;;;5.50;;
44766;SDS011;30487;48.716;9.272;2023-04-19T09:11:40;11.98;;;6.10;;
44766;SDS011;30487;48.716;9.272;2023-04-19T09:14:06;10.13;;;5.57;;
44766;SDS011;30487;48.716;9.272;2023-04-19T09:16:34;11.07;;;6.00;;
44766;SDS011;30487;48.716;9.272;2023-04-19T09:19:01;10.73;;;5.80;;
44766;SDS011;30487;48.716;9.272;2023-04-19T09:21:28;9.35;;;5.13;;
44766;SDS011;30487;48.716;9.272;2023-04-19T09:23:54;8.60;;;5.10;;
44766;SDS011;30487;48.716;9.272;2023-04-19T09:26:20;9.00;;;5.22;;
44766;SDS011;30487;48.716;9.272;2023-04-19T09:28:54;10.25;;;5.25;;
44766;SDS011;30487;48.716;9.272;2023-04-19T09:31:23;9.65;;;5.03;;
44766;SDS011;30487;48.716;9.272;2023-04-19T09:33:51;8.23;;;4.90;;
44766;SDS011;30487;48.716;9.272;2023-04-19T09:38:54;9.70;;;4.97;;
44766;SDS011;30487;48.716;9.272;2023-04-19T09:41:20;8.55;;;4.72;;
44766;SDS011;30487;48.716;9.272;2023-04-19T09:43:46;7.55;;;4.80;;
44766;SDS011;30487;48.716;9.272;2023-04-19T09:46:31;9.15;;;5.28;;
44766;SDS011;30487;48.716;9.272;2023-04-19T09:51:44;9.15;;;5.13;;
44766;SDS011;30487;48.716;9.272;2023-04-19T09:54:12;10.25;;;5.20;;
44766;SDS011;30487;48.716;9.272;2023-04-19T09:56:38;8.13;;;5.07;;
44766;SDS011;30487;48.716;9.272;2023-04-19T09:59:05;9.88;;;5.28;;
44766;SDS011;30487;48.716;9.272;2023-04-19T10:01:37;8.05;;;5.03;;
44766;SDS011;30487;48.716;9.272;2023-04-19T10:04:11;10.02;;;4.75;;
44766;SDS011;30487;48.716;9.272;2023-04-19T10:06:46;8.93;;;4.75;;
44766;SDS011;30487;48.716;9.272;2023-04-19T10:09:13;8.55;;;5.15;;
44766;SDS011;30487;48.716;9.272;2023-04-19T10:11:39;6.10;;;4.00;;
44766;SDS011;30487;48.716;9.272;2023-04-19T10:14:08;8.00;;;4.45;;
44766;SDS011;30487;48.716;9.272;2023-04-19T10:16:35;7.72;;;4.70;;
44766;SDS011;30487;48.716;9.272;2023-04-19T10:19:06;9.00;;;4.53;;
44766;SDS011;30487;48.716;9.272;2023-04-19T10:21:33;8.73;;;5.05;;
44766;SDS011;30487;48.716;9.272;2023-04-19T10:23:59;10.48;;;5.13;;
44766;SDS011;30487;48.716;9.272;2023-04-19T10:26:25;8.85;;;4.47;;
44766;SDS011;30487;48.716;9.272;2023-04-19T10:28:55;9.25;;;4.75;;
44766;SDS011;30487;48.716;9.272;2023-04-19T10:31:21;7.72;;;4.80;;
44766;SDS011;30487;48.716;9.272;2023-04-19T10:33:50;8.68;;;4.60;;
44766;SDS011;30487;48.716;9.272;2023-04-19T10:36:16;7.68;;;4.57;;
44766;SDS011;30487;48.716;9.272;2023-04-19T10:38:43;8.02;;;4.47;;
44766;SDS011;30487;48.716;9.272;2023-04-19T10:41:12;8.13;;;4.35;;
44766;SDS011;30487;48.716;9.272;2023-04-19T10:43:39;8.50;;;4.88;;
44766;SDS011;30487;48.716;9.272;2023-04-19T10:48:52;8.35;;;5.55;;
44766;SDS011;30487;48.716;9.272;2023-04-19T10:51:22;9.18;;;4.75;;
44766;SDS011;30487;48.716;9.272;2023-04-19T11:01:32;7.40;;;4.95;;
44766;SDS011;30487;48.716;9.272;2023-04-19T11:06:55;6.93;;;4.35;;
44766;SDS011;30487;48.716;9.272;2023-04-19T11:12:04;8.73;;;5.13;;
44766;SDS011;30487;48.716;9.272;2023-04-19T11:14:35;8.90;;;4.88;;
44766;SDS011;30487;48.716;9.272;2023-04-19T11:17:22;9.73;;;6.18;;
44766;SDS011;30487;48.716;9.272;2023-04-19T11:19:55;11.05;;;6.35;;
44766;SDS011;30487;48.716;9.272;2023-04-19T11:25:04;11.18;;;6.10;;
44766;SDS011;30487;48.716;9.272;2023-04-19T11:27:30;10.40;;;5.70;;
44766;SDS011;30487;48.716;9.272;2023-04-19T11:30:06;10.65;;;6.07;;
44766;SDS011;30487;48.716;9.272;2023-04-19T11:35:36;10.32;;;5.72;;
44766;SDS011;30487;48.716;9.272;2023-04-19T11:38:01;10.25;;;5.85;;
44766;SDS011;30487;48.716;9.272;2023-04-19T11:40:29;11.90;;;5.50;;
44766;SDS011;30487;48.716;9.272;2023-04-19T11:42:56;9.35;;;5.90;;
44766;SDS011;30487;48.716;9.272;2023-04-19T11:45:31;12.25;;;5.80;;
44766;SDS011;30487;48.716;9.272;2023-04-19T11:47:58;11.15;;;5.93;;
44766;SDS011;30487;48.716;9.272;2023-04-19T11:52:56;12.73;;;6.05;;
44766;SDS011;30487;48.716;9.272;2023-04-19T11:55:22;12.82;;;6.20;;
44766;SDS011;30487;48.716;9.272;2023-04-19T11:57:48;10.90;;;6.70;;
44766;SDS011;30487;48.716;9.272;2023-04-19T12:00:14;10.85;;;5.93;;
44766;SDS011;30487;48.716;9.272;2023-04-19T12:02:43;10.05;;;6.20;;
44766;SDS011;30487;48.716;9.272;2023-04-19T12:05:11;11.18;;;6.32;;
44766;SDS011;30487;48.716;9.272;2023-04-19T12:10:24;10.93;;;6.80;;
44766;SDS011;30487;48.716;9.272;2023-04-19T12:12:50;13.30;;;6.75;;
44766;SDS011;30487;48.716;9.272;2023-04-19T12:15:15;13.70;;;7.07;;
44766;SDS011;30487;48.716;9.272;2023-04-19T12:20:33;13.30;;;6.88;;
44766;SDS011;30487;48.716;9.272;2023-04-19T12:23:01;13.07;;;7.57;;
44766;SDS011;30487;48.716;9.272;2023-04-19T12:25:30;13.70;;;7.20;;
44766;SDS011;30487;48.716;9.272;2023-04-19T12:27:58;15.23;;;7.45;;
44766;SDS011;30487;48.716;9.272;2023-04-19T12:30:24;14.13;;;8.00;;
44766;SDS011;30487;48.716;9.272;2023-04-19T12:32:54;12.98;;;7.75;;
44766;SDS011;30487;48.716;9.272;2023-04-19T12:35:25;15.57;;;8.38;;
44766;SDS011;30487;48.716;9.272;2023-04-19T12:37:56;15.38;;;8.90;;
44766;SDS011;30487;48.716;9.272;2023-04-19T12:40:22;13.75;;;8.88;;
44766;SDS011;30487;48.716;9.272;2023-04-19T12:42:49;14.85;;;8.38;;
44766;SDS011;30487;48.716;9.272;2023-04-19T12:45:16;13.82;;;8.20;;
44766;SDS011;30487;48.716;9.272;2023-04-19T12:47:42;15.32;;;8.95;;
44766;SDS011;30487;48.716;9.272;2023-04-19T12:50:10;16.45;;;9.70;;
44766;SDS011;30487;48.716;9.272;2023-04-19T12:52:37;14.52;;;8.98;;
44766;SDS011;30487;48.716;9.272;2023-04-19T12:55:03;15.57;;;8.75;;
44766;SDS011;30487;48.716;9.272;2023-04-19T12:57:30;16.02;;;9.25;;
44766;SDS011;30487;48.716;9.272;2023-04-19T12:59:55;17.02;;;9.05;;
44766;SDS011;30487;48.716;9.272;2023-04-19T13:02:21;18.55;;;9.25;;
44766;SDS011;30487;48.716;9.272;2023-04-19T13:04:47;16.13;;;9.48;;
44766;SDS011;30487;48.716;9.272;2023-04-19T13:07:12;14.35;;;8.90;;
44766;SDS011;30487;48.716;9.272;2023-04-19T13:09:38;15.48;;;9.25;;
44766;SDS011;30487;48.716;9.272;2023-04-19T13:12:04;15.60;;;8.75;;
44766;SDS011;30487;48.716;9.272;2023-04-19T13:14:29;17.38;;;9.45;;
44766;SDS011;30487;48.716;9.272;2023-04-19T13:16:55;16.65;;;9.10;;
44766;SDS011;30487;48.716;9.272;2023-04-19T13:19:21;17.17;;;9.50;;
44766;SDS011;30487;48.716;9.272;2023-04-19T13:21:46;18.35;;;9.15;;
44766;SDS011;30487;48.716;9.272;2023-04-19T13:24:12;15.88;;;9.05;;
44766;SDS011;30487;48.716;9.272;2023-04-19T13:26:37;18.35;;;9.10;;
44766;SDS011;30487;48.716;9.272;2023-04-19T13:29:03;14.70;;;8.73;;
44766;SDS011;30487;48.716;9.272;2023-04-19T13:31:29;16.83;;;8.38;;
44766;SDS011;30487;48.716;9.272;2023-04-19T13:33:55;19.15;;;9.20;;
44766;SDS011;30487;48.716;9.272;2023-04-19T13:36:20;17.73;;;9.30;;
44766;SDS011;30487;48.716;9.272;2023-04-19T13:38:46;16.95;;;9.15;;
44766;SDS011;30487;48.716;9.272;2023-04-19T13:41:13;14.40;;;7.93;;
44766;SDS011;30487;48.716;9.272;2023-04-19T13:43:38;14.88;;;7.93;;
44766;SDS011;30487;48.716;9.272;2023-04-19T13:46:04;16.30;;;8.60;;
44766;SDS011;30487;48.716;9.272;2023-04-19T13:48:30;15.50;;;8.30;;
44766;SDS011;30487;48.716;9.272;2023-04-19T13:50:56;15.65;;;7.75;;
44766;SDS011;30487;48.716;9.272;2023-04-19T13:53:23;15.77;;;8.10;;
44766;SDS011;30487;48.716;9.272;2023-04-19T13:55:50;13.95;;;7.68;;
44766;SDS011;30487;48.716;9.272;2023-04-19T13:58:16;15.10;;;8.02;;
44766;SDS011;30487;48.716;9.272;2023-04-19T14:00:42;16.45;;;7.65;;
44766;SDS011;30487;48.716;9.272;2023-04-19T14:03:08;17.05;;;7.75;;
44766;SDS011;30487;48.716;9.272;2023-04-19T14:05:33;17.02;;;7.43;;
44766;SDS011;30487;48.716;9.272;2023-04-19T14:07:59;13.30;;;7.63;;
44766;SDS011;30487;48.716;9.272;2023-04-19T14:10:25;17.30;;;7.82;;
44766;SDS011;30487;48.716;9.272;2023-04-19T14:12:51;14.77;;;8.10;;
44766;SDS011;30487;48.716;9.272;2023-04-19T14:15:20;15.05;;;8.50;;
44766;SDS011;30487;48.716;9.272;2023-04-19T14:17:47;18.17;;;9.98;;
44766;SDS011;30487;48.716;9.272;2023-04-19T14:20:13;18.63;;;8.88;;
44766;SDS011;30487;48.716;9.272;2023-04-19T14:22:40;16.00;;;8.45;;
44766;SDS011;30487;48.716;9.272;2023-04-19T14:25:06;14.15;;;8.25;;
44766;SDS011;30487;48.716;9.272;2023-04-19T14:27:32;12.65;;;7.55;;
44766;SDS011;30487;48.716;9.272;2023-04-19T14:29:58;13.73;;;7.93;;
44766;SDS011;30487;48.716;9.272;2023-04-19T14:32:23;18.15;;;7.63;;
44766;SDS011;30487;48.716;9.272;2023-04-19T14:34:49;13.70;;;7.40;;
44766;SDS011;30487;48.716;9.272;2023-04-19T14:37:16;16.48;;;8.50;;
44766;SDS011;30487;48.716;9.272;2023-04-19T14:39:43;14.38;;;8.32;;
44766;SDS011;30487;48.716;9.272;2023-04-19T14:42:09;15.82;;;7.82;;
44766;SDS011;30487;48.716;9.272;2023-04-19T14:44:35;14.77;;;8.27;;
44766;SDS011;30487;48.716;9.272;2023-04-19T14:47:01;14.25;;;7.95;;
44766;SDS011;30487;48.716;9.272;2023-04-19T14:49:27;14.75;;;7.72;;
44766;SDS011;30487;48.716;9.272;2023-04-19T14:51:52;15.23;;;8.10;;
44766;SDS011;30487;48.716;9.272;2023-04-19T14:54:18;13.23;;;7.55;;
44766;SDS011;30487;48.716;9.272;2023-04-19T14:56:44;12.68;;;7.10;;
44766;SDS011;30487;48.716;9.272;2023-04-19T14:59:09;13.82;;;7.43;;
44766;SDS011;30487;48.716;9.272;2023-04-19T15:01:35;11.40;;;6.60;;
44766;SDS011;30487;48.716;9.272;2023-04-19T15:04:00;11.00;;;6.72;;
44766;SDS011;30487;48.716;9.272;2023-04-19T15:06:26;12.60;;;7.38;;
44766;SDS011;30487;48.716;9.272;2023-04-19T15:08:52;13.70;;;7.10;;